METAR AND TAF INFORMATION
METAR FOR K2W6
ADDS - METARS form results

(1553 UTC 20 January 2019)
Data provider http://aviationweather.gov/metar/data/
 
METAR text: K2W6 201543Z AUTO 30013G23KT 270V340 10SM SCT032 BKN039 BKN090 07/03 A2947 RMK AO1
Conditions at: K2W6 (ST MARYS (DUKE) , MD, US) observed 1543 UTC 20 January 2019
Temperature: 7.0°C (45°F)
Dewpoint: 3.0°C (37°F) [RH = 76%]
Pressure (altimeter): 29.47 inches Hg (998.1 mb)
Winds: from the WNW (300 degrees) at 15 MPH (13 knots; 6.7 m/s)
gusting to 26 MPH (23 knots; 11.8 m/s)
Visibility: 10 or more miles (16+ km)
Ceiling: 3900 feet AGL
Clouds: scattered clouds at 3200 feet AGL
broken clouds at 3900 feet AGL
broken clouds at 9000 feet AGL
Weather: automated observation with no human augmentation;
there may or may not be significant weather present at this time

METAR text: K2W6 201523Z AUTO 29012G24KT 10SM SCT011 BKN030 OVC041 07/03 A2945 RMK AO1
Conditions at: K2W6 (ST MARYS (DUKE) , MD, US) observed 1523 UTC 20 January 2019
Temperature: 7.0°C (45°F)
Dewpoint: 3.0°C (37°F) [RH = 76%]
Pressure (altimeter): 29.45 inches Hg (997.4 mb)
Winds: from the WNW (290 degrees) at 14 MPH (12 knots; 6.2 m/s)
gusting to 28 MPH (24 knots; 12.3 m/s)
Visibility: 10 or more miles (16+ km)
Ceiling: 3000 feet AGL
Clouds: scattered clouds at 1100 feet AGL
broken clouds at 3000 feet AGL
overcast cloud deck at 4100 feet AGL
Weather: automated observation with no human augmentation;
there may or may not be significant weather present at this time

METAR text: K2W6 201503Z AUTO 28014G21KT 10SM BKN008 BKN013 OVC026 07/05 A2943 RMK AO1
Conditions at: K2W6 (ST MARYS (DUKE) , MD, US) observed 1503 UTC 20 January 2019
Temperature: 7.0°C (45°F)
Dewpoint: 5.0°C (41°F) [RH = 87%]
Pressure (altimeter): 29.43 inches Hg (996.7 mb)
Winds: from the W (280 degrees) at 16 MPH (14 knots; 7.2 m/s)
gusting to 24 MPH (21 knots; 10.8 m/s)
Visibility: 10 or more miles (16+ km)
Ceiling: 800 feet AGL
Clouds: broken clouds at 800 feet AGL
broken clouds at 1300 feet AGL
overcast cloud deck at 2600 feet AGL
Weather: automated observation with no human augmentation;
there may or may not be significant weather present at this time

 AIRPORT MAP

Esri Leaflet Quickstart
 RUNWAY INFORMATION
Runway 11 Runway length 4150 ft Runway width 75 ft
Runway elevation 142 ft Runway displaced threshold 0 ft Runway heading 102
Runway 29 Runway length 4150 ft Runway width 75 ft
Runway elevation 125 ft Runway displaced threshold 0 ft Runway heading 282

 AIRPORT FREQUENCIES
Type A/D Name PATUXENT A Frequency 120.05 MHZ
Type AWOS Name AWOS 3 Frequency 119.575 MHZ
Type RDO Name LEESBURG R Frequency 117.6 MHZ
Type UNIC Name CTAF/UNICO Frequency 123 MHZ

 AIRPORT NEAR NAVIGATION AIDS



Powered by Virtual Airlines Manager [v2.6.2]